sensor_id;sensor_type;location;lat;lon;timestamp;temperature;humidity
8214;DHT22;4148;47.974;7.824;2022-12-20T00:01:33;4.50;99.90
8214;DHT22;4148;47.974;7.824;2022-12-20T00:04:03;4.60;99.90
8214;DHT22;4148;47.974;7.824;2022-12-20T00:06:33;4.70;99.90
8214;DHT22;4148;47.974;7.824;2022-12-20T00:09:04;4.70;99.90
8214;DHT22;4148;47.974;7.824;2022-12-20T00:11:32;4.60;99.90
8214;DHT22;4148;47.974;7.824;2022-12-20T00:14:00;4.60;99.90
8214;DHT22;4148;47.974;7.824;2022-12-20T00:16:29;4.60;99.90
8214;DHT22;4148;47.974;7.824;2022-12-20T00:18:58;4.50;99.90
8214;DHT22;4148;47.974;7.824;2022-12-20T00:21:28;4.50;99.90
8214;DHT22;4148;47.974;7.824;2022-12-20T00:23:56;4.50;99.90
8214;DHT22;4148;47.974;7.824;2022-12-20T00:26:26;4.50;99.90
8214;DHT22;4148;47.974;7.824;2022-12-20T00:28:54;4.40;99.90
8214;DHT22;4148;47.974;7.824;2022-12-20T00:31:24;4.30;99.90
8214;DHT22;4148;47.974;7.824;2022-12-20T00:33:55;4.50;99.90
8214;DHT22;4148;47.974;7.824;2022-12-20T00:36:24;4.50;99.90
8214;DHT22;4148;47.974;7.824;2022-12-20T00:38:54;4.50;99.90
8214;DHT22;4148;47.974;7.824;2022-12-20T00:41:25;4.40;99.90
8214;DHT22;4148;47.974;7.824;2022-12-20T00:43:53;4.50;99.90
8214;DHT22;4148;47.974;7.824;2022-12-20T00:46:22;4.40;99.90
8214;DHT22;4148;47.974;7.824;2022-12-20T00:48:51;4.30;99.90
8214;DHT22;4148;47.974;7.824;2022-12-20T00:51:22;4.20;99.90
8214;DHT22;4148;47.974;7.824;2022-12-20T00:53:50;4.20;99.90
8214;DHT22;4148;47.974;7.824;2022-12-20T00:56:18;4.30;99.90
8214;DHT22;4148;47.974;7.824;2022-12-20T00:58:46;4.50;99.90
8214;DHT22;4148;47.974;7.824;2022-12-20T01:01:17;4.60;99.90
8214;DHT22;4148;47.974;7.824;2022-12-20T01:03:46;4.60;99.90
8214;DHT22;4148;47.974;7.824;2022-12-20T01:06:14;4.50;99.90
8214;DHT22;4148;47.974;7.824;2022-12-20T01:08:44;4.50;99.90
8214;DHT22;4148;47.974;7.824;2022-12-20T01:11:13;4.50;99.90
8214;DHT22;4148;47.974;7.824;2022-12-20T01:13:43;4.60;99.90
8214;DHT22;4148;47.974;7.824;2022-12-20T01:16:14;4.50;99.90
8214;DHT22;4148;47.974;7.824;2022-12-20T01:18:42;4.50;99.90
8214;DHT22;4148;47.974;7.824;2022-12-20T01:21:12;4.50;99.90
8214;DHT22;4148;47.974;7.824;2022-12-20T01:23:41;4.60;99.90
8214;DHT22;4148;47.974;7.824;2022-12-20T01:26:12;4.50;99.90
8214;DHT22;4148;47.974;7.824;2022-12-20T01:28:42;4.60;99.90
8214;DHT22;4148;47.974;7.824;2022-12-20T01:31:12;4.60;99.90
8214;DHT22;4148;47.974;7.824;2022-12-20T01:33:42;4.60;99.90
8214;DHT22;4148;47.974;7.824;2022-12-20T01:36:12;4.60;99.90
8214;DHT22;4148;47.974;7.824;2022-12-20T01:38:41;4.50;99.90
8214;DHT22;4148;47.974;7.824;2022-12-20T01:41:14;4.50;99.90
8214;DHT22;4148;47.974;7.824;2022-12-20T01:43:50;4.50;99.90
8214;DHT22;4148;47.974;7.824;2022-12-20T01:46:20;4.40;99.90
8214;DHT22;4148;47.974;7.824;2022-12-20T01:48:51;4.40;99.90
8214;DHT22;4148;47.974;7.824;2022-12-20T01:51:22;4.50;99.90
8214;DHT22;4148;47.974;7.824;2022-12-20T01:53:54;4.40;99.90
8214;DHT22;4148;47.974;7.824;2022-12-20T01:56:24;4.40;99.90
8214;DHT22;4148;47.974;7.824;2022-12-20T01:58:53;4.60;99.90
8214;DHT22;4148;47.974;7.824;2022-12-20T02:01:23;4.70;99.90
8214;DHT22;4148;47.974;7.824;2022-12-20T02:03:53;4.80;99.90
8214;DHT22;4148;47.974;7.824;2022-12-20T02:06:23;4.90;99.90
8214;DHT22;4148;47.974;7.824;2022-12-20T02:08:54;4.90;99.90
8214;DHT22;4148;47.974;7.824;2022-12-20T02:11:43;5.00;99.90
8214;DHT22;4148;47.974;7.824;2022-12-20T02:14:18;4.90;99.90
8214;DHT22;4148;47.974;7.824;2022-12-20T02:16:52;4.90;99.90
8214;DHT22;4148;47.974;7.824;2022-12-20T02:22:27;5.00;99.90
8214;DHT22;4148;47.974;7.824;2022-12-20T02:25:13;5.00;99.90
8214;DHT22;4148;47.974;7.824;2022-12-20T02:27:53;5.20;99.90
8214;DHT22;4148;47.974;7.824;2022-12-20T02:30:27;5.20;99.90
8214;DHT22;4148;47.974;7.824;2022-12-20T02:33:01;5.10;99.90
8214;DHT22;4148;47.974;7.824;2022-12-20T02:35:32;5.00;99.90
8214;DHT22;4148;47.974;7.824;2022-12-20T02:38:02;4.90;99.90
8214;DHT22;4148;47.974;7.824;2022-12-20T02:40:33;4.90;99.90
8214;DHT22;4148;47.974;7.824;2022-12-20T02:43:05;4.80;99.90
8214;DHT22;4148;47.974;7.824;2022-12-20T02:45:56;4.80;99.90
8214;DHT22;4148;47.974;7.824;2022-12-20T02:48:27;4.80;99.90
8214;DHT22;4148;47.974;7.824;2022-12-20T02:50:57;4.80;99.90
8214;DHT22;4148;47.974;7.824;2022-12-20T02:53:27;4.80;99.90
8214;DHT22;4148;47.974;7.824;2022-12-20T02:55:59;4.80;99.90
8214;DHT22;4148;47.974;7.824;2022-12-20T02:58:32;4.90;99.90
8214;DHT22;4148;47.974;7.824;2022-12-20T03:01:07;4.90;99.90
8214;DHT22;4148;47.974;7.824;2022-12-20T03:03:36;4.80;99.90
8214;DHT22;4148;47.974;7.824;2022-12-20T03:06:04;4.90;99.90
8214;DHT22;4148;47.974;7.824;2022-12-20T03:08:32;4.80;99.90
8214;DHT22;4148;47.974;7.824;2022-12-20T03:11:01;4.80;99.90
8214;DHT22;4148;47.974;7.824;2022-12-20T03:13:29;4.80;99.90
8214;DHT22;4148;47.974;7.824;2022-12-20T03:15:57;4.80;99.90
8214;DHT22;4148;47.974;7.824;2022-12-20T03:18:26;4.80;99.90
8214;DHT22;4148;47.974;7.824;2022-12-20T03:20:54;4.80;99.90
8214;DHT22;4148;47.974;7.824;2022-12-20T03:23:22;4.90;99.90
8214;DHT22;4148;47.974;7.824;2022-12-20T03:25:50;5.00;99.90
8214;DHT22;4148;47.974;7.824;2022-12-20T03:28:18;4.90;99.90
8214;DHT22;4148;47.974;7.824;2022-12-20T03:30:46;4.80;99.90
8214;DHT22;4148;47.974;7.824;2022-12-20T03:33:14;4.90;99.90
8214;DHT22;4148;47.974;7.824;2022-12-20T03:35:43;4.90;99.90
8214;DHT22;4148;47.974;7.824;2022-12-20T03:38:11;4.80;99.90
8214;DHT22;4148;47.974;7.824;2022-12-20T03:40:39;4.80;99.90
8214;DHT22;4148;47.974;7.824;2022-12-20T03:43:07;4.70;99.90
8214;DHT22;4148;47.974;7.824;2022-12-20T03:45:35;4.70;99.90
8214;DHT22;4148;47.974;7.824;2022-12-20T03:48:03;4.80;99.90
8214;DHT22;4148;47.974;7.824;2022-12-20T03:50:31;4.70;99.90
8214;DHT22;4148;47.974;7.824;2022-12-20T03:53:00;4.70;99.90
8214;DHT22;4148;47.974;7.824;2022-12-20T03:55:28;4.60;99.90
8214;DHT22;4148;47.974;7.824;2022-12-20T03:57:56;4.60;99.90
8214;DHT22;4148;47.974;7.824;2022-12-20T04:00:24;4.60;99.90
8214;DHT22;4148;47.974;7.824;2022-12-20T04:02:52;4.60;99.90
8214;DHT22;4148;47.974;7.824;2022-12-20T04:05:21;4.60;99.90
8214;DHT22;4148;47.974;7.824;2022-12-20T04:07:49;4.60;99.90
8214;DHT22;4148;47.974;7.824;2022-12-20T04:10:18;4.70;99.90
8214;DHT22;4148;47.974;7.824;2022-12-20T04:12:46;4.80;99.90
8214;DHT22;4148;47.974;7.824;2022-12-20T04:15:14;4.80;99.90
8214;DHT22;4148;47.974;7.824;2022-12-20T04:17:42;4.70;99.90
8214;DHT22;4148;47.974;7.824;2022-12-20T04:20:13;4.70;99.90
8214;DHT22;4148;47.974;7.824;2022-12-20T04:22:49;4.80;99.90
8214;DHT22;4148;47.974;7.824;2022-12-20T04:25:19;4.80;99.90
8214;DHT22;4148;47.974;7.824;2022-12-20T04:27:47;4.70;99.90
8214;DHT22;4148;47.974;7.824;2022-12-20T04:30:15;4.70;99.90
8214;DHT22;4148;47.974;7.824;2022-12-20T04:32:43;4.80;99.90
8214;DHT22;4148;47.974;7.824;2022-12-20T04:35:11;4.80;99.90
8214;DHT22;4148;47.974;7.824;2022-12-20T04:37:39;4.80;99.90
8214;DHT22;4148;47.974;7.824;2022-12-20T04:40:08;4.80;99.90
8214;DHT22;4148;47.974;7.824;2022-12-20T04:42:37;4.80;99.90
8214;DHT22;4148;47.974;7.824;2022-12-20T04:45:06;4.80;99.90
8214;DHT22;4148;47.974;7.824;2022-12-20T04:47:34;4.80;99.90
8214;DHT22;4148;47.974;7.824;2022-12-20T04:50:02;4.80;99.90
8214;DHT22;4148;47.974;7.824;2022-12-20T04:52:30;4.70;99.90
8214;DHT22;4148;47.974;7.824;2022-12-20T04:55:15;4.80;99.90
8214;DHT22;4148;47.974;7.824;2022-12-20T04:57:45;4.70;99.90
8214;DHT22;4148;47.974;7.824;2022-12-20T05:00:14;4.70;99.90
8214;DHT22;4148;47.974;7.824;2022-12-20T05:02:42;4.70;99.90
8214;DHT22;4148;47.974;7.824;2022-12-20T05:05:11;4.70;99.90
8214;DHT22;4148;47.974;7.824;2022-12-20T05:07:39;4.70;99.90
8214;DHT22;4148;47.974;7.824;2022-12-20T05:10:08;4.80;99.90
8214;DHT22;4148;47.974;7.824;2022-12-20T05:12:36;4.80;99.90
8214;DHT22;4148;47.974;7.824;2022-12-20T05:15:06;4.80;99.90
8214;DHT22;4148;47.974;7.824;2022-12-20T05:17:34;4.90;99.90
8214;DHT22;4148;47.974;7.824;2022-12-20T05:20:03;4.90;99.90
8214;DHT22;4148;47.974;7.824;2022-12-20T05:22:31;4.90;99.90
8214;DHT22;4148;47.974;7.824;2022-12-20T05:25:17;4.90;99.90
8214;DHT22;4148;47.974;7.824;2022-12-20T05:28:03;4.90;99.90
8214;DHT22;4148;47.974;7.824;2022-12-20T05:30:32;4.80;99.90
8214;DHT22;4148;47.974;7.824;2022-12-20T05:33:00;4.70;99.90
8214;DHT22;4148;47.974;7.824;2022-12-20T05:35:27;4.70;99.90
8214;DHT22;4148;47.974;7.824;2022-12-20T05:37:55;4.70;99.90
8214;DHT22;4148;47.974;7.824;2022-12-20T05:40:23;4.60;99.90
8214;DHT22;4148;47.974;7.824;2022-12-20T05:42:51;4.70;99.90
8214;DHT22;4148;47.974;7.824;2022-12-20T05:45:19;4.80;99.90
8214;DHT22;4148;47.974;7.824;2022-12-20T05:47:49;4.70;99.90
8214;DHT22;4148;47.974;7.824;2022-12-20T05:50:17;4.70;99.90
8214;DHT22;4148;47.974;7.824;2022-12-20T05:52:45;4.70;99.90
8214;DHT22;4148;47.974;7.824;2022-12-20T05:55:13;4.60;99.90
8214;DHT22;4148;47.974;7.824;2022-12-20T05:57:41;4.70;99.90
8214;DHT22;4148;47.974;7.824;2022-12-20T06:00:10;4.70;99.90
8214;DHT22;4148;47.974;7.824;2022-12-20T06:02:38;4.70;99.90
8214;DHT22;4148;47.974;7.824;2022-12-20T06:05:08;4.80;99.90
8214;DHT22;4148;47.974;7.824;2022-12-20T06:07:36;4.80;99.90
8214;DHT22;4148;47.974;7.824;2022-12-20T06:10:05;4.80;99.90
8214;DHT22;4148;47.974;7.824;2022-12-20T06:12:33;4.80;99.90
8214;DHT22;4148;47.974;7.824;2022-12-20T06:15:01;4.80;99.90
8214;DHT22;4148;47.974;7.824;2022-12-20T06:17:29;4.90;99.90
8214;DHT22;4148;47.974;7.824;2022-12-20T06:19:57;4.90;99.90
8214;DHT22;4148;47.974;7.824;2022-12-20T06:22:26;4.90;99.90
8214;DHT22;4148;47.974;7.824;2022-12-20T06:24:54;4.90;99.90
8214;DHT22;4148;47.974;7.824;2022-12-20T06:27:22;4.90;99.90
8214;DHT22;4148;47.974;7.824;2022-12-20T06:29:50;4.90;99.90
8214;DHT22;4148;47.974;7.824;2022-12-20T06:32:20;4.90;99.90
8214;DHT22;4148;47.974;7.824;2022-12-20T06:34:49;4.90;99.90
8214;DHT22;4148;47.974;7.824;2022-12-20T06:37:17;4.90;99.90
8214;DHT22;4148;47.974;7.824;2022-12-20T06:39:46;4.80;99.90
8214;DHT22;4148;47.974;7.824;2022-12-20T06:42:14;4.90;99.90
8214;DHT22;4148;47.974;7.824;2022-12-20T06:44:42;4.90;99.90
8214;DHT22;4148;47.974;7.824;2022-12-20T06:47:10;4.90;99.90
8214;DHT22;4148;47.974;7.824;2022-12-20T06:49:38;4.90;99.90
8214;DHT22;4148;47.974;7.824;2022-12-20T06:52:06;4.90;99.90
8214;DHT22;4148;47.974;7.824;2022-12-20T06:54:34;4.90;99.90
8214;DHT22;4148;47.974;7.824;2022-12-20T06:57:03;4.90;99.90
8214;DHT22;4148;47.974;7.824;2022-12-20T06:59:32;4.90;99.90
8214;DHT22;4148;47.974;7.824;2022-12-20T07:02:00;4.90;99.90
8214;DHT22;4148;47.974;7.824;2022-12-20T07:04:29;4.90;99.90
8214;DHT22;4148;47.974;7.824;2022-12-20T07:06:57;4.90;99.90
8214;DHT22;4148;47.974;7.824;2022-12-20T07:09:25;5.10;99.90
8214;DHT22;4148;47.974;7.824;2022-12-20T07:11:53;5.10;99.90
8214;DHT22;4148;47.974;7.824;2022-12-20T07:14:22;5.10;99.90
8214;DHT22;4148;47.974;7.824;2022-12-20T07:16:51;5.20;99.90
8214;DHT22;4148;47.974;7.824;2022-12-20T07:19:19;5.40;99.90
8214;DHT22;4148;47.974;7.824;2022-12-20T07:21:48;5.40;99.90
8214;DHT22;4148;47.974;7.824;2022-12-20T07:24:16;5.30;99.90
8214;DHT22;4148;47.974;7.824;2022-12-20T07:26:44;5.30;99.90
8214;DHT22;4148;47.974;7.824;2022-12-20T07:29:12;5.30;99.90
8214;DHT22;4148;47.974;7.824;2022-12-20T07:31:43;5.20;99.90
8214;DHT22;4148;47.974;7.824;2022-12-20T07:34:11;5.20;99.90
8214;DHT22;4148;47.974;7.824;2022-12-20T07:36:39;5.20;99.90
8214;DHT22;4148;47.974;7.824;2022-12-20T07:39:07;5.20;99.90
8214;DHT22;4148;47.974;7.824;2022-12-20T07:41:35;5.20;99.90
8214;DHT22;4148;47.974;7.824;2022-12-20T07:44:03;5.20;99.90
8214;DHT22;4148;47.974;7.824;2022-12-20T07:46:31;5.30;99.90
8214;DHT22;4148;47.974;7.824;2022-12-20T07:49:01;5.30;99.90
8214;DHT22;4148;47.974;7.824;2022-12-20T07:51:35;5.30;99.90
8214;DHT22;4148;47.974;7.824;2022-12-20T07:54:05;5.20;99.90
8214;DHT22;4148;47.974;7.824;2022-12-20T07:56:39;5.20;99.90
8214;DHT22;4148;47.974;7.824;2022-12-20T07:59:09;5.20;99.90
8214;DHT22;4148;47.974;7.824;2022-12-20T08:01:38;5.20;99.90
8214;DHT22;4148;47.974;7.824;2022-12-20T08:04:13;5.20;99.90
8214;DHT22;4148;47.974;7.824;2022-12-20T08:06:42;5.20;99.90
8214;DHT22;4148;47.974;7.824;2022-12-20T08:09:10;5.20;99.90
8214;DHT22;4148;47.974;7.824;2022-12-20T08:11:41;5.30;99.90
8214;DHT22;4148;47.974;7.824;2022-12-20T08:14:10;5.30;99.90
8214;DHT22;4148;47.974;7.824;2022-12-20T08:16:38;5.40;99.90
8214;DHT22;4148;47.974;7.824;2022-12-20T08:19:08;5.40;99.90
8214;DHT22;4148;47.974;7.824;2022-12-20T08:21:36;5.40;99.90
8214;DHT22;4148;47.974;7.824;2022-12-20T08:24:04;5.40;99.90
8214;DHT22;4148;47.974;7.824;2022-12-20T08:26:36;5.40;99.90
8214;DHT22;4148;47.974;7.824;2022-12-20T08:29:04;5.50;99.90
8214;DHT22;4148;47.974;7.824;2022-12-20T08:31:36;5.50;99.90
8214;DHT22;4148;47.974;7.824;2022-12-20T08:34:09;5.50;99.90
8214;DHT22;4148;47.974;7.824;2022-12-20T08:36:37;5.60;99.90
8214;DHT22;4148;47.974;7.824;2022-12-20T08:39:06;5.70;99.90
8214;DHT22;4148;47.974;7.824;2022-12-20T08:41:34;5.70;99.90
8214;DHT22;4148;47.974;7.824;2022-12-20T08:44:03;5.80;99.90
8214;DHT22;4148;47.974;7.824;2022-12-20T08:46:31;5.90;99.90
8214;DHT22;4148;47.974;7.824;2022-12-20T08:48:59;5.90;99.90
8214;DHT22;4148;47.974;7.824;2022-12-20T08:51:29;6.10;99.90
8214;DHT22;4148;47.974;7.824;2022-12-20T08:53:57;6.20;99.90
8214;DHT22;4148;47.974;7.824;2022-12-20T08:56:25;6.40;99.90
8214;DHT22;4148;47.974;7.824;2022-12-20T08:58:53;6.50;99.90
8214;DHT22;4148;47.974;7.824;2022-12-20T09:01:21;6.50;99.90
8214;DHT22;4148;47.974;7.824;2022-12-20T09:03:49;6.60;99.90
8214;DHT22;4148;47.974;7.824;2022-12-20T09:06:18;6.60;99.90
8214;DHT22;4148;47.974;7.824;2022-12-20T09:08:48;6.70;99.90
8214;DHT22;4148;47.974;7.824;2022-12-20T09:11:18;6.70;99.90
8214;DHT22;4148;47.974;7.824;2022-12-20T09:13:48;6.70;99.90
8214;DHT22;4148;47.974;7.824;2022-12-20T09:16:18;6.70;99.90
8214;DHT22;4148;47.974;7.824;2022-12-20T09:18:47;6.70;99.90
8214;DHT22;4148;47.974;7.824;2022-12-20T09:21:15;6.80;99.90
8214;DHT22;4148;47.974;7.824;2022-12-20T09:23:43;6.90;99.90
8214;DHT22;4148;47.974;7.824;2022-12-20T09:26:14;6.90;99.90
8214;DHT22;4148;47.974;7.824;2022-12-20T09:28:43;6.90;99.90
8214;DHT22;4148;47.974;7.824;2022-12-20T09:31:12;7.00;99.90
8214;DHT22;4148;47.974;7.824;2022-12-20T09:33:41;7.10;99.90
8214;DHT22;4148;47.974;7.824;2022-12-20T09:36:11;7.20;99.90
8214;DHT22;4148;47.974;7.824;2022-12-20T09:38:40;7.30;99.90
8214;DHT22;4148;47.974;7.824;2022-12-20T09:41:18;7.40;99.90
8214;DHT22;4148;47.974;7.824;2022-12-20T09:43:48;7.50;99.90
8214;DHT22;4148;47.974;7.824;2022-12-20T09:46:17;7.50;99.90
8214;DHT22;4148;47.974;7.824;2022-12-20T09:48:45;7.60;99.90
8214;DHT22;4148;47.974;7.824;2022-12-20T09:51:26;7.60;99.90
8214;DHT22;4148;47.974;7.824;2022-12-20T09:54:07;7.60;99.90
8214;DHT22;4148;47.974;7.824;2022-12-20T09:56:44;7.60;99.90
8214;DHT22;4148;47.974;7.824;2022-12-20T09:59:14;7.60;99.90
8214;DHT22;4148;47.974;7.824;2022-12-20T10:01:46;7.60;99.90
8214;DHT22;4148;47.974;7.824;2022-12-20T10:04:20;7.70;99.90
8214;DHT22;4148;47.974;7.824;2022-12-20T10:07:04;7.60;99.90
8214;DHT22;4148;47.974;7.824;2022-12-20T10:09:52;7.60;99.90
8214;DHT22;4148;47.974;7.824;2022-12-20T10:12:31;7.70;99.90
8214;DHT22;4148;47.974;7.824;2022-12-20T10:15:17;7.70;99.90
8214;DHT22;4148;47.974;7.824;2022-12-20T10:18:15;7.70;99.90
8214;DHT22;4148;47.974;7.824;2022-12-20T10:20:56;7.70;99.90
8214;DHT22;4148;47.974;7.824;2022-12-20T10:23:31;7.70;99.90
8214;DHT22;4148;47.974;7.824;2022-12-20T10:26:00;7.80;99.90
8214;DHT22;4148;47.974;7.824;2022-12-20T10:28:32;7.80;99.90
8214;DHT22;4148;47.974;7.824;2022-12-20T10:31:03;7.80;99.90
8214;DHT22;4148;47.974;7.824;2022-12-20T10:33:31;7.90;99.90
8214;DHT22;4148;47.974;7.824;2022-12-20T10:36:21;7.90;99.90
8214;DHT22;4148;47.974;7.824;2022-12-20T10:38:51;7.90;99.90
8214;DHT22;4148;47.974;7.824;2022-12-20T10:41:21;7.90;99.90
8214;DHT22;4148;47.974;7.824;2022-12-20T10:43:54;7.90;99.90
8214;DHT22;4148;47.974;7.824;2022-12-20T10:46:33;8.00;99.90
8214;DHT22;4148;47.974;7.824;2022-12-20T10:49:21;8.10;99.90
8214;DHT22;4148;47.974;7.824;2022-12-20T10:51:53;8.20;99.90
8214;DHT22;4148;47.974;7.824;2022-12-20T10:54:23;8.30;99.90
8214;DHT22;4148;47.974;7.824;2022-12-20T10:56:56;8.50;99.90
8214;DHT22;4148;47.974;7.824;2022-12-20T10:59:31;9.10;99.90
8214;DHT22;4148;47.974;7.824;2022-12-20T11:01:59;9.90;99.90
8214;DHT22;4148;47.974;7.824;2022-12-20T11:04:30;10.50;99.90
8214;DHT22;4148;47.974;7.824;2022-12-20T11:07:00;11.10;99.90
8214;DHT22;4148;47.974;7.824;2022-12-20T11:09:30;11.30;99.90
8214;DHT22;4148;47.974;7.824;2022-12-20T11:12:04;11.40;99.90
8214;DHT22;4148;47.974;7.824;2022-12-20T11:14:35;11.40;99.90
8214;DHT22;4148;47.974;7.824;2022-12-20T11:17:24;11.30;99.90
8214;DHT22;4148;47.974;7.824;2022-12-20T11:20:06;11.20;99.90
8214;DHT22;4148;47.974;7.824;2022-12-20T11:22:44;11.10;99.90
8214;DHT22;4148;47.974;7.824;2022-12-20T11:25:34;11.00;99.90
8214;DHT22;4148;47.974;7.824;2022-12-20T11:28:19;10.80;99.90
8214;DHT22;4148;47.974;7.824;2022-12-20T11:30:55;10.80;99.90
8214;DHT22;4148;47.974;7.824;2022-12-20T11:33:46;10.80;99.90
8214;DHT22;4148;47.974;7.824;2022-12-20T11:36:26;10.80;99.90
8214;DHT22;4148;47.974;7.824;2022-12-20T11:39:02;10.80;99.90
8214;DHT22;4148;47.974;7.824;2022-12-20T11:41:40;10.80;99.90
8214;DHT22;4148;47.974;7.824;2022-12-20T11:44:16;10.70;99.90
8214;DHT22;4148;47.974;7.824;2022-12-20T11:47:21;10.60;99.90
8214;DHT22;4148;47.974;7.824;2022-12-20T11:50:09;10.60;99.90
8214;DHT22;4148;47.974;7.824;2022-12-20T11:52:44;10.50;99.90
8214;DHT22;4148;47.974;7.824;2022-12-20T11:55:17;10.50;99.90
8214;DHT22;4148;47.974;7.824;2022-12-20T11:57:55;10.40;99.90
8214;DHT22;4148;47.974;7.824;2022-12-20T12:00:47;10.50;99.90
8214;DHT22;4148;47.974;7.824;2022-12-20T12:03:25;11.20;99.90
8214;DHT22;4148;47.974;7.824;2022-12-20T12:05:56;11.90;99.90
8214;DHT22;4148;47.974;7.824;2022-12-20T12:08:40;12.80;99.90
8214;DHT22;4148;47.974;7.824;2022-12-20T12:11:15;13.40;99.90
8214;DHT22;4148;47.974;7.824;2022-12-20T12:14:05;13.80;99.90
8214;DHT22;4148;47.974;7.824;2022-12-20T12:16:34;14.10;99.90
8214;DHT22;4148;47.974;7.824;2022-12-20T12:19:07;14.00;99.90
8214;DHT22;4148;47.974;7.824;2022-12-20T12:21:39;13.90;99.90
8214;DHT22;4148;47.974;7.824;2022-12-20T12:24:18;13.80;99.90
8214;DHT22;4148;47.974;7.824;2022-12-20T12:26:47;13.80;99.90
8214;DHT22;4148;47.974;7.824;2022-12-20T12:29:16;13.80;99.90
8214;DHT22;4148;47.974;7.824;2022-12-20T12:31:48;13.60;99.90
8214;DHT22;4148;47.974;7.824;2022-12-20T12:34:35;13.50;99.90
8214;DHT22;4148;47.974;7.824;2022-12-20T12:37:27;13.40;99.90
8214;DHT22;4148;47.974;7.824;2022-12-20T12:43:22;13.70;99.90
8214;DHT22;4148;47.974;7.824;2022-12-20T12:45:54;13.80;99.90
8214;DHT22;4148;47.974;7.824;2022-12-20T12:48:27;13.80;99.90
8214;DHT22;4148;47.974;7.824;2022-12-20T12:50:59;13.70;99.90
8214;DHT22;4148;47.974;7.824;2022-12-20T12:53:33;13.60;99.90
8214;DHT22;4148;47.974;7.824;2022-12-20T12:59:40;13.30;99.90
8214;DHT22;4148;47.974;7.824;2022-12-20T13:02:33;13.20;99.90
8214;DHT22;4148;47.974;7.824;2022-12-20T13:05:30;13.10;99.90
8214;DHT22;4148;47.974;7.824;2022-12-20T13:08:01;13.00;99.90
8214;DHT22;4148;47.974;7.824;2022-12-20T13:10:56;12.90;99.90
8214;DHT22;4148;47.974;7.824;2022-12-20T13:13:25;12.90;99.90
8214;DHT22;4148;47.974;7.824;2022-12-20T13:16:09;12.90;99.90
8214;DHT22;4148;47.974;7.824;2022-12-20T13:18:37;13.00;99.90
8214;DHT22;4148;47.974;7.824;2022-12-20T13:21:35;13.00;99.90
8214;DHT22;4148;47.974;7.824;2022-12-20T13:24:49;13.00;99.90
8214;DHT22;4148;47.974;7.824;2022-12-20T13:27:27;13.30;99.90
8214;DHT22;4148;47.974;7.824;2022-12-20T13:36:00;13.10;99.90
8214;DHT22;4148;47.974;7.824;2022-12-20T13:38:52;12.90;99.90
8214;DHT22;4148;47.974;7.824;2022-12-20T13:41:34;12.60;99.90
8214;DHT22;4148;47.974;7.824;2022-12-20T13:47:38;12.20;99.90
8214;DHT22;4148;47.974;7.824;2022-12-20T13:50:30;12.10;99.90
8214;DHT22;4148;47.974;7.824;2022-12-20T13:52:58;12.00;99.90
8214;DHT22;4148;47.974;7.824;2022-12-20T13:55:32;12.10;99.90
8214;DHT22;4148;47.974;7.824;2022-12-20T13:58:10;12.00;99.90
8214;DHT22;4148;47.974;7.824;2022-12-20T14:00:39;12.00;99.90
8214;DHT22;4148;47.974;7.824;2022-12-20T14:03:20;12.00;99.90
8214;DHT22;4148;47.974;7.824;2022-12-20T14:05:54;12.00;99.90
8214;DHT22;4148;47.974;7.824;2022-12-20T14:08:25;12.00;99.90
8214;DHT22;4148;47.974;7.824;2022-12-20T14:10:54;12.00;99.90
8214;DHT22;4148;47.974;7.824;2022-12-20T14:13:25;12.00;99.90
8214;DHT22;4148;47.974;7.824;2022-12-20T14:15:53;12.00;99.90
8214;DHT22;4148;47.974;7.824;2022-12-20T14:18:22;12.10;99.90
8214;DHT22;4148;47.974;7.824;2022-12-20T14:20:54;12.10;99.90
8214;DHT22;4148;47.974;7.824;2022-12-20T14:23:24;12.00;99.90
8214;DHT22;4148;47.974;7.824;2022-12-20T14:25:54;12.00;99.90
8214;DHT22;4148;47.974;7.824;2022-12-20T14:28:30;11.90;99.90
8214;DHT22;4148;47.974;7.824;2022-12-20T14:31:02;11.80;99.90
8214;DHT22;4148;47.974;7.824;2022-12-20T14:33:34;11.70;99.90
8214;DHT22;4148;47.974;7.824;2022-12-20T14:36:16;11.60;99.90
8214;DHT22;4148;47.974;7.824;2022-12-20T14:38:46;11.50;99.90
8214;DHT22;4148;47.974;7.824;2022-12-20T14:41:32;11.50;99.90
8214;DHT22;4148;47.974;7.824;2022-12-20T14:44:12;11.40;99.90
8214;DHT22;4148;47.974;7.824;2022-12-20T14:46:46;11.40;99.90
8214;DHT22;4148;47.974;7.824;2022-12-20T14:49:20;11.30;99.90
8214;DHT22;4148;47.974;7.824;2022-12-20T14:51:49;11.20;99.90
8214;DHT22;4148;47.974;7.824;2022-12-20T14:54:19;11.10;99.90
8214;DHT22;4148;47.974;7.824;2022-12-20T14:57:10;10.90;99.90
8214;DHT22;4148;47.974;7.824;2022-12-20T15:00:01;10.80;99.90
8214;DHT22;4148;47.974;7.824;2022-12-20T15:02:34;10.70;99.90
8214;DHT22;4148;47.974;7.824;2022-12-20T15:07:53;10.70;99.90
8214;DHT22;4148;47.974;7.824;2022-12-20T15:10:21;10.60;99.90
8214;DHT22;4148;47.974;7.824;2022-12-20T15:12:49;10.50;99.90
8214;DHT22;4148;47.974;7.824;2022-12-20T15:15:18;10.50;99.90
8214;DHT22;4148;47.974;7.824;2022-12-20T15:17:55;10.50;99.90
8214;DHT22;4148;47.974;7.824;2022-12-20T15:20:23;10.60;99.90
8214;DHT22;4148;47.974;7.824;2022-12-20T15:22:51;10.60;99.90
8214;DHT22;4148;47.974;7.824;2022-12-20T15:25:18;10.70;99.90
8214;DHT22;4148;47.974;7.824;2022-12-20T15:27:46;10.70;99.90
8214;DHT22;4148;47.974;7.824;2022-12-20T15:30:15;10.70;99.90
8214;DHT22;4148;47.974;7.824;2022-12-20T15:32:44;10.80;99.90
8214;DHT22;4148;47.974;7.824;2022-12-20T15:35:21;10.90;99.90
8214;DHT22;4148;47.974;7.824;2022-12-20T15:37:50;10.90;99.90
8214;DHT22;4148;47.974;7.824;2022-12-20T15:40:18;10.80;99.90
8214;DHT22;4148;47.974;7.824;2022-12-20T15:42:46;10.80;99.90
8214;DHT22;4148;47.974;7.824;2022-12-20T15:45:14;10.80;99.90
8214;DHT22;4148;47.974;7.824;2022-12-20T15:47:42;10.70;99.90
8214;DHT22;4148;47.974;7.824;2022-12-20T15:50:12;10.50;99.90
8214;DHT22;4148;47.974;7.824;2022-12-20T15:52:40;10.50;99.90
8214;DHT22;4148;47.974;7.824;2022-12-20T15:55:09;10.50;99.90
8214;DHT22;4148;47.974;7.824;2022-12-20T15:57:37;10.50;99.90
8214;DHT22;4148;47.974;7.824;2022-12-20T16:00:06;10.40;99.90
8214;DHT22;4148;47.974;7.824;2022-12-20T16:02:34;10.70;99.90
8214;DHT22;4148;47.974;7.824;2022-12-20T16:05:03;10.70;99.90
8214;DHT22;4148;47.974;7.824;2022-12-20T16:07:32;10.70;99.90
8214;DHT22;4148;47.974;7.824;2022-12-20T16:10:00;10.50;99.90
8214;DHT22;4148;47.974;7.824;2022-12-20T16:12:32;10.40;99.90
8214;DHT22;4148;47.974;7.824;2022-12-20T16:15:01;10.40;99.90
8214;DHT22;4148;47.974;7.824;2022-12-20T16:17:29;10.30;99.90
8214;DHT22;4148;47.974;7.824;2022-12-20T16:19:56;10.20;99.90
8214;DHT22;4148;47.974;7.824;2022-12-20T16:22:24;10.30;99.90
8214;DHT22;4148;47.974;7.824;2022-12-20T16:24:54;10.30;99.90
8214;DHT22;4148;47.974;7.824;2022-12-20T16:27:21;10.20;99.90
8214;DHT22;4148;47.974;7.824;2022-12-20T16:29:49;10.20;99.90
8214;DHT22;4148;47.974;7.824;2022-12-20T16:32:19;10.10;99.90
8214;DHT22;4148;47.974;7.824;2022-12-20T16:34:48;10.00;99.90
8214;DHT22;4148;47.974;7.824;2022-12-20T16:37:16;9.90;99.90
8214;DHT22;4148;47.974;7.824;2022-12-20T16:39:44;9.90;99.90
8214;DHT22;4148;47.974;7.824;2022-12-20T16:42:15;9.90;99.90
8214;DHT22;4148;47.974;7.824;2022-12-20T16:44:44;10.00;99.90
8214;DHT22;4148;47.974;7.824;2022-12-20T16:47:13;10.20;99.90
8214;DHT22;4148;47.974;7.824;2022-12-20T16:49:41;10.30;99.90
8214;DHT22;4148;47.974;7.824;2022-12-20T16:52:18;10.20;99.90
8214;DHT22;4148;47.974;7.824;2022-12-20T16:54:47;10.20;99.90
8214;DHT22;4148;47.974;7.824;2022-12-20T16:57:16;10.00;99.90
8214;DHT22;4148;47.974;7.824;2022-12-20T16:59:44;9.80;99.90
8214;DHT22;4148;47.974;7.824;2022-12-20T17:02:20;9.60;99.90
8214;DHT22;4148;47.974;7.824;2022-12-20T17:04:49;9.50;99.90